Terminal Aerodrome Forecast
Issued by NWS

Home | Current Version | Previous Version | Text Only | Print | Product List | Glossary On
Versions: 1 2 3 4 5 6 7 8 9 10 11 12 13 14 15 16 17 18 19 20 21 22 23
000
FTUS46 KOTX 010533
TAFPUW
TAF
KPUW 010533Z 0106/0206 00000KT P6SM FEW150 BKN200
     FM011600 08004KT P6SM SCT120 OVC150
     FM012200 28005KT P6SM VCTS SCT100CB OVC120
     FM020200 VRB02KT P6SM FEW120 BKN150=

USA.gov is the U.S. government's official web portal to all federal, state and local government web resources and services.